createdAt,value
2023-04-04T00:00:54.099Z,82.00
2023-04-04T00:03:22.274Z,81.60
2023-04-04T00:05:51.691Z,81.60
2023-04-04T00:08:19.881Z,81.50
2023-04-04T00:10:47.877Z,82.70
2023-04-04T00:13:17.308Z,82.00
2023-04-04T00:15:45.362Z,82.40
2023-04-04T00:18:13.515Z,82.30
2023-04-04T00:20:42.020Z,82.30
2023-04-04T00:23:11.113Z,83.10
2023-04-04T00:25:39.533Z,83.50
2023-04-04T00:28:07.590Z,83.70
2023-04-04T00:30:37.972Z,84.20
2023-04-04T00:33:06.520Z,84.90
2023-04-04T00:35:34.756Z,84.40
2023-04-04T00:38:02.836Z,84.70
2023-04-04T00:40:30.990Z,85.10
2023-04-04T00:43:00.623Z,85.20
2023-04-04T00:45:28.600Z,85.00
2023-04-04T00:47:59.676Z,85.40
2023-04-04T00:50:27.836Z,84.90
2023-04-04T00:52:56.209Z,85.60
2023-04-04T00:55:24.504Z,85.40
2023-04-04T00:57:52.834Z,84.40
2023-04-04T01:00:21.409Z,84.90
2023-04-04T01:02:50.033Z,84.00
2023-04-04T01:05:19.909Z,84.60
2023-04-04T01:07:48.368Z,85.00
2023-04-04T01:10:16.620Z,84.20
2023-04-04T01:12:44.941Z,84.00
2023-04-04T01:15:13.095Z,84.10
2023-04-04T01:17:41.943Z,84.10
2023-04-04T01:20:13.373Z,83.70
2023-04-04T01:22:44.408Z,84.50
2023-04-04T01:25:13.092Z,84.10
2023-04-04T01:27:42.571Z,83.20
2023-04-04T01:30:11.214Z,83.70
2023-04-04T01:32:44.769Z,83.10
2023-04-04T01:35:22.846Z,83.20
2023-04-04T01:37:56.893Z,83.20
2023-04-04T01:40:29.168Z,83.30
2023-04-04T01:42:59.210Z,83.10
2023-04-04T01:45:29.655Z,82.60
2023-04-04T01:47:58.284Z,84.20
2023-04-04T01:50:27.125Z,85.20
2023-04-04T01:52:55.234Z,84.00
2023-04-04T01:55:23.533Z,83.00
2023-04-04T01:57:52.244Z,82.50
2023-04-04T02:00:22.121Z,81.60
2023-04-04T02:02:50.700Z,80.70
2023-04-04T02:05:18.862Z,80.30
2023-04-04T02:07:49.999Z,80.00
2023-04-04T02:10:18.279Z,79.20
2023-04-04T02:12:46.723Z,78.20
2023-04-04T02:15:14.944Z,79.10
2023-04-04T02:17:48.747Z,79.60
2023-04-04T02:20:19.343Z,80.80
2023-04-04T02:22:53.609Z,80.60
2023-04-04T02:25:22.260Z,79.30
2023-04-04T02:27:50.546Z,80.00
2023-04-04T02:30:19.437Z,80.00
2023-04-04T02:32:50.344Z,80.80
2023-04-04T02:35:18.563Z,81.00
2023-04-04T02:37:48.023Z,81.10
2023-04-04T02:40:16.311Z,80.90
2023-04-04T02:42:45.168Z,80.60
2023-04-04T02:45:14.632Z,81.80
2023-04-04T02:47:43.586Z,80.60
2023-04-04T02:50:13.187Z,81.70
2023-04-04T02:52:41.092Z,81.90
2023-04-04T02:55:10.430Z,83.70
2023-04-04T02:57:38.474Z,83.40
2023-04-04T03:00:07.721Z,83.80
2023-04-04T03:02:36.028Z,82.00
2023-04-04T03:05:04.354Z,83.00
2023-04-04T03:07:33.800Z,82.90
2023-04-04T03:10:01.982Z,82.70
2023-04-04T03:12:30.090Z,83.10
2023-04-04T03:14:58.156Z,82.80
2023-04-04T03:17:27.049Z,83.00
2023-04-04T03:19:55.156Z,84.60
2023-04-04T03:22:23.185Z,83.70
2023-04-04T03:24:52.700Z,83.90
2023-04-04T03:27:20.752Z,84.30
2023-04-04T03:29:48.783Z,83.90
2023-04-04T03:32:18.138Z,83.20
2023-04-04T03:34:46.483Z,83.80
2023-04-04T03:37:14.542Z,83.00
2023-04-04T03:39:42.596Z,83.70
2023-04-04T03:42:12.102Z,82.70
2023-04-04T03:44:40.920Z,83.60
2023-04-04T03:47:08.984Z,83.40
2023-04-04T03:49:37.110Z,85.10
2023-04-04T03:52:05.544Z,84.30
2023-04-04T03:54:34.573Z,83.50
2023-04-04T03:57:04.164Z,83.30
2023-04-04T03:59:33.602Z,83.10
2023-04-04T04:02:01.900Z,82.70
2023-04-04T04:04:30.039Z,81.60
2023-04-04T04:06:58.539Z,82.50
2023-04-04T04:09:26.584Z,81.10
2023-04-04T04:11:54.646Z,82.10
2023-04-04T04:14:22.740Z,82.50
2023-04-04T04:16:52.250Z,83.30
2023-04-04T04:19:20.408Z,82.50
2023-04-04T04:21:49.056Z,82.80
2023-04-04T04:24:17.321Z,82.20
2023-04-04T04:26:45.444Z,82.20
2023-04-04T04:29:13.525Z,81.80
2023-04-04T04:31:41.745Z,82.10
2023-04-04T04:34:11.253Z,83.10
2023-04-04T04:36:39.308Z,82.50
2023-04-04T04:39:07.664Z,82.50
2023-04-04T04:41:36.707Z,82.20
2023-04-04T04:44:04.793Z,83.10
2023-04-04T04:46:32.936Z,83.20
2023-04-04T04:49:01.131Z,83.70
2023-04-04T04:51:30.568Z,84.30
2023-04-04T04:53:58.654Z,84.80
2023-04-04T04:56:26.709Z,84.80
2023-04-04T04:58:54.747Z,84.30
2023-04-04T05:01:22.862Z,84.50
2023-04-04T05:03:52.913Z,82.10
2023-04-04T05:06:21.739Z,83.30
2023-04-04T05:08:51.192Z,83.10
2023-04-04T05:11:19.226Z,84.00
2023-04-04T05:13:47.240Z,81.70
2023-04-04T05:16:15.368Z,82.60
2023-04-04T05:18:43.456Z,83.00
2023-04-04T05:21:11.467Z,82.60
2023-04-04T05:23:39.687Z,83.30
2023-04-04T05:26:09.103Z,81.20
2023-04-04T05:28:37.240Z,82.50
2023-04-04T05:31:05.445Z,81.90
2023-04-04T05:33:33.520Z,81.90
2023-04-04T05:36:01.819Z,82.40
2023-04-04T05:38:31.009Z,81.30
2023-04-04T05:40:59.048Z,81.30
2023-04-04T05:43:28.639Z,82.30
2023-04-04T05:45:56.530Z,82.50
2023-04-04T05:48:24.642Z,82.40
2023-04-04T05:50:52.706Z,82.50
2023-04-04T05:53:20.973Z,82.80
2023-04-04T05:55:52.500Z,83.80
2023-04-04T05:58:20.585Z,82.10
2023-04-04T06:00:49.981Z,81.80
2023-04-04T06:03:19.672Z,81.90
2023-04-04T06:05:52.300Z,81.90
2023-04-04T06:08:20.479Z,82.50
2023-04-04T06:10:48.681Z,80.90
2023-04-04T06:13:16.857Z,82.10
2023-04-04T06:15:44.962Z,81.60
2023-04-04T06:18:14.485Z,81.70
2023-04-04T06:20:42.409Z,81.80
2023-04-04T06:23:10.495Z,80.80
2023-04-04T06:25:38.923Z,81.70
2023-04-04T06:28:07.915Z,82.10
2023-04-04T06:30:38.299Z,81.40
2023-04-04T06:33:07.041Z,79.80
2023-04-04T06:35:36.478Z,80.60
2023-04-04T06:38:05.508Z,81.20
2023-04-04T06:40:33.590Z,80.60
2023-04-04T06:43:01.868Z,79.90
2023-04-04T06:45:33.313Z,78.10
2023-04-04T06:48:01.520Z,76.60
2023-04-04T06:50:32.238Z,75.00
2023-04-04T06:53:02.146Z,77.20
2023-04-04T06:55:30.256Z,76.70
2023-04-04T06:57:58.319Z,75.60
2023-04-04T07:00:26.555Z,76.20
2023-04-04T07:02:59.880Z,76.20
2023-04-04T07:05:28.024Z,77.30
2023-04-04T07:07:57.124Z,76.90
2023-04-04T07:10:27.041Z,77.10
2023-04-04T07:12:55.446Z,76.00
2023-04-04T07:15:23.544Z,76.60
2023-04-04T07:17:51.659Z,76.40
2023-04-04T07:20:19.967Z,75.80
2023-04-04T07:22:49.500Z,75.20
2023-04-04T07:25:17.370Z,76.20
2023-04-04T07:27:46.888Z,75.70
2023-04-04T07:30:16.339Z,73.90
2023-04-04T07:32:44.551Z,75.80
2023-04-04T07:35:12.633Z,75.30
2023-04-04T07:37:40.675Z,75.70
2023-04-04T07:40:12.398Z,73.70
2023-04-04T07:42:46.968Z,73.20
2023-04-04T07:45:15.550Z,73.00
2023-04-04T07:47:45.405Z,72.90
2023-04-04T07:50:13.881Z,70.90
2023-04-04T07:52:42.104Z,69.50
2023-04-04T07:55:10.689Z,70.80
2023-04-04T07:57:39.919Z,70.00
2023-04-04T08:00:11.726Z,68.90
2023-04-04T08:02:40.312Z,68.30
2023-04-04T08:05:09.937Z,70.60
2023-04-04T08:07:37.787Z,69.10
2023-04-04T08:10:07.303Z,69.00
2023-04-04T08:12:35.409Z,65.30
2023-04-04T08:15:03.546Z,65.20
2023-04-04T08:17:33.227Z,67.90
2023-04-04T08:20:01.319Z,64.10
2023-04-04T08:22:29.381Z,61.30
2023-04-04T08:24:57.660Z,63.70
2023-04-04T08:27:25.827Z,62.60
2023-04-04T08:29:53.872Z,60.30
2023-04-04T08:32:22.216Z,58.80
2023-04-04T08:34:52.161Z,57.40
2023-04-04T08:37:20.221Z,59.40
2023-04-04T08:39:48.289Z,59.20
2023-04-04T08:42:20.566Z,58.50
2023-04-04T08:44:50.849Z,56.90
2023-04-04T08:47:19.742Z,59.70
2023-04-04T08:49:48.862Z,57.60
2023-04-04T08:52:21.639Z,57.60
2023-04-04T08:54:51.933Z,58.70
2023-04-04T08:57:20.090Z,57.90
2023-04-04T08:59:48.650Z,58.00
2023-04-04T09:02:24.442Z,55.80
2023-04-04T09:05:05.440Z,57.80
2023-04-04T09:07:38.813Z,54.90
2023-04-04T09:10:10.865Z,55.40
2023-04-04T09:12:42.972Z,53.90
2023-04-04T09:15:12.213Z,54.90
2023-04-04T09:17:40.416Z,54.20
2023-04-04T09:20:40.570Z,53.60
2023-04-04T09:23:14.045Z,54.90
2023-04-04T09:26:02.564Z,52.50
2023-04-04T09:28:32.163Z,53.40
2023-04-04T09:31:03.044Z,54.90
2023-04-04T09:33:34.264Z,56.10
2023-04-04T09:36:07.796Z,54.60
2023-04-04T09:38:38.915Z,54.40
2023-04-04T09:41:09.734Z,56.90
2023-04-04T09:43:38.484Z,55.50
2023-04-04T09:46:07.811Z,52.70
2023-04-04T09:48:37.714Z,51.50
2023-04-04T09:51:06.939Z,52.20
2023-04-04T09:53:42.128Z,52.30
2023-04-04T09:56:10.825Z,54.30
2023-04-04T09:58:46.378Z,56.10
2023-04-04T10:01:19.413Z,54.40
2023-04-04T10:03:53.559Z,50.70
2023-04-04T10:06:22.590Z,52.50
2023-04-04T10:08:52.172Z,48.90
2023-04-04T10:11:29.583Z,49.40
2023-04-04T10:13:58.491Z,50.30
2023-04-04T10:16:27.347Z,51.40
2023-04-04T10:18:55.763Z,51.10
2023-04-04T10:21:25.024Z,50.00
2023-04-04T10:23:55.298Z,51.60
2023-04-04T10:26:25.972Z,53.90
2023-04-04T10:28:54.982Z,51.20
2023-04-04T10:31:25.255Z,50.90
2023-04-04T10:34:05.861Z,50.70
2023-04-04T10:36:41.685Z,51.10
2023-04-04T10:39:16.178Z,50.70
2023-04-04T10:41:46.697Z,49.30
2023-04-04T10:44:24.672Z,51.10
2023-04-04T10:46:55.441Z,50.80
2023-04-04T10:49:24.122Z,51.00
2023-04-04T10:51:56.984Z,53.00
2023-04-04T10:54:29.081Z,51.80
2023-04-04T10:57:01.481Z,51.40
2023-04-04T10:59:29.700Z,51.60
2023-04-04T11:01:59.445Z,49.70
2023-04-04T11:04:34.106Z,51.00
2023-04-04T11:07:17.202Z,49.70
2023-04-04T11:09:54.426Z,48.90
2023-04-04T11:12:24.295Z,50.30
2023-04-04T11:15:10.271Z,51.10
2023-04-04T11:18:21.499Z,51.00
2023-04-04T11:20:55.868Z,49.50
2023-04-04T11:23:24.387Z,45.00
2023-04-04T11:25:54.861Z,48.90
2023-04-04T11:28:45.811Z,47.10
2023-04-04T11:31:28.959Z,45.10
2023-04-04T11:33:59.474Z,45.20
2023-04-04T11:36:55.230Z,44.00
2023-04-04T11:39:27.319Z,45.70
2023-04-04T11:42:03.520Z,47.00
2023-04-04T11:44:33.357Z,49.00
2023-04-04T11:47:05.215Z,48.20
2023-04-04T11:49:36.503Z,48.70
2023-04-04T11:52:06.826Z,44.30
2023-04-04T11:54:35.262Z,46.10
2023-04-04T11:57:06.797Z,42.90
2023-04-04T11:59:35.680Z,43.20
2023-04-04T12:02:03.922Z,45.80
2023-04-04T12:04:32.954Z,43.00
2023-04-04T12:07:03.491Z,42.50
2023-04-04T12:09:31.585Z,43.40
2023-04-04T12:11:59.689Z,44.20
2023-04-04T12:14:29.103Z,44.40
2023-04-04T12:16:59.467Z,44.50
2023-04-04T12:19:29.712Z,46.80
2023-04-04T12:21:59.135Z,45.70
2023-04-04T12:24:27.681Z,46.60
2023-04-04T12:26:56.092Z,46.20
2023-04-04T12:29:27.451Z,41.80
2023-04-04T12:31:58.122Z,44.30
2023-04-04T12:37:04.769Z,44.20
2023-04-04T12:39:32.911Z,44.10
2023-04-04T12:42:03.575Z,44.80
2023-04-04T12:44:33.074Z,46.90
2023-04-04T12:47:03.267Z,43.50
2023-04-04T12:49:32.889Z,42.50
2023-04-04T12:52:05.281Z,40.00
2023-04-04T12:54:35.128Z,45.50
2023-04-04T12:57:05.644Z,40.00
2023-04-04T12:59:35.295Z,41.90
2023-04-04T13:02:07.977Z,41.20
2023-04-04T13:04:36.295Z,41.00
2023-04-04T13:07:04.989Z,40.70
2023-04-04T13:09:35.720Z,38.80
2023-04-04T13:12:08.513Z,39.50
2023-04-04T13:14:59.660Z,39.90
2023-04-04T13:17:44.141Z,39.20
2023-04-04T13:20:12.662Z,38.40
2023-04-04T13:22:42.192Z,35.10
2023-04-04T13:25:11.618Z,36.10
2023-04-04T13:27:39.617Z,38.40
2023-04-04T13:30:10.361Z,36.60
2023-04-04T13:32:40.886Z,35.00
2023-04-04T13:35:09.291Z,33.90
2023-04-04T13:37:37.272Z,36.30
2023-04-04T13:40:06.129Z,37.20
2023-04-04T13:42:35.376Z,36.60
2023-04-04T13:45:03.518Z,39.20
2023-04-04T13:47:31.571Z,36.00
2023-04-04T13:50:01.014Z,35.00
2023-04-04T13:52:28.930Z,37.70
2023-04-04T13:54:57.453Z,34.40
2023-04-04T13:57:27.100Z,33.70
2023-04-04T13:59:56.351Z,34.40
2023-04-04T14:02:24.609Z,33.90
2023-04-04T14:04:52.797Z,35.80
2023-04-04T14:07:22.239Z,36.70
2023-04-04T14:09:50.096Z,35.10
2023-04-04T14:12:18.147Z,34.70
2023-04-04T14:14:46.260Z,35.00
2023-04-04T14:17:14.288Z,37.60
2023-04-04T14:19:44.320Z,37.90
2023-04-04T14:22:12.426Z,36.20
2023-04-04T14:24:41.856Z,37.20
2023-04-04T14:27:09.720Z,35.90
2023-04-04T14:29:38.557Z,34.50
2023-04-04T14:32:07.697Z,36.90
2023-04-04T14:34:35.761Z,35.20
2023-04-04T14:37:04.009Z,37.20
2023-04-04T14:39:33.138Z,36.30
2023-04-04T14:42:02.549Z,37.50
2023-04-04T14:44:31.101Z,38.20
2023-04-04T14:47:00.538Z,36.90
2023-04-04T14:49:28.670Z,36.10
2023-04-04T14:51:56.793Z,35.80
2023-04-04T14:54:24.853Z,37.90
2023-04-04T14:56:52.924Z,38.50
2023-04-04T14:59:22.431Z,39.30
2023-04-04T15:01:50.469Z,40.30
2023-04-04T15:04:18.621Z,39.30
2023-04-04T15:06:46.911Z,39.80
2023-04-04T15:09:16.802Z,41.50
2023-04-04T15:11:44.872Z,41.20
2023-04-04T15:14:12.953Z,42.60
2023-04-04T15:16:42.431Z,43.10
2023-04-04T15:19:11.341Z,41.50
2023-04-04T15:21:39.371Z,40.90
2023-04-04T15:24:07.725Z,41.50
2023-04-04T15:26:35.834Z,42.40
2023-04-04T15:29:04.793Z,43.70
2023-04-04T15:31:33.032Z,43.80
2023-04-04T15:34:02.456Z,44.90
2023-04-04T15:36:31.338Z,45.20
2023-04-04T15:38:59.441Z,45.30
2023-04-04T15:41:27.458Z,46.20
2023-04-04T15:43:55.514Z,46.50
2023-04-04T15:46:23.664Z,46.30
2023-04-04T15:48:52.466Z,46.50
2023-04-04T15:51:22.133Z,46.60
2023-04-04T15:53:50.021Z,47.30
2023-04-04T15:56:18.060Z,47.30
2023-04-04T15:58:46.165Z,48.20
2023-04-04T16:01:14.316Z,48.30
2023-04-04T16:03:44.815Z,48.00
2023-04-04T16:06:13.866Z,47.50
2023-04-04T16:08:44.458Z,48.20
2023-04-04T16:11:12.888Z,49.20
2023-04-04T16:13:40.957Z,49.30
2023-04-04T16:16:09.148Z,48.70
2023-04-04T16:18:37.938Z,49.10
2023-04-04T16:21:06.464Z,49.50
2023-04-04T16:23:34.652Z,49.20
2023-04-04T16:26:04.107Z,50.50
2023-04-04T16:28:32.200Z,50.10
2023-04-04T16:31:00.425Z,50.40
2023-04-04T16:33:28.560Z,50.00
2023-04-04T16:35:56.649Z,51.00
2023-04-04T16:38:24.733Z,51.20
2023-04-04T16:40:52.810Z,50.90
2023-04-04T16:43:22.179Z,51.30
2023-04-04T16:45:50.461Z,52.20
2023-04-04T16:48:18.519Z,53.30
2023-04-04T16:50:46.637Z,53.00
2023-04-04T16:53:14.720Z,53.40
2023-04-04T16:55:42.814Z,54.00
2023-04-04T16:58:10.861Z,54.10
2023-04-04T17:00:40.565Z,54.40
2023-04-04T17:03:08.767Z,54.70
2023-04-04T17:05:36.867Z,54.70
2023-04-04T17:08:05.192Z,55.20
2023-04-04T17:10:33.258Z,54.90
2023-04-04T17:13:02.047Z,54.90
2023-04-04T17:15:30.247Z,55.60
2023-04-04T17:17:59.671Z,56.10
2023-04-04T17:20:29.833Z,55.80
2023-04-04T17:22:58.960Z,56.40
2023-04-04T17:25:29.153Z,56.40
2023-04-04T17:27:57.650Z,56.50
2023-04-04T17:30:26.483Z,57.30
2023-04-04T17:32:55.194Z,57.30
2023-04-04T17:35:24.689Z,57.90
2023-04-04T17:37:52.923Z,57.80
2023-04-04T17:40:21.373Z,58.40
2023-04-04T17:42:49.415Z,58.70
2023-04-04T17:45:19.294Z,58.70
2023-04-04T17:47:47.395Z,59.00
2023-04-04T17:50:15.894Z,58.80
2023-04-04T17:52:45.652Z,59.20
2023-04-04T17:55:13.798Z,59.60
2023-04-04T17:57:44.845Z,60.60
2023-04-04T18:00:15.551Z,60.30
2023-04-04T18:02:43.714Z,61.20
2023-04-04T18:05:12.673Z,61.60
2023-04-04T18:07:41.279Z,62.50
2023-04-04T18:10:11.274Z,61.90
2023-04-04T18:12:39.439Z,62.60
2023-04-04T18:15:08.609Z,63.00
2023-04-04T18:17:36.822Z,63.30
2023-04-04T18:20:05.598Z,63.90
2023-04-04T18:22:34.577Z,63.50
2023-04-04T18:25:02.614Z,63.60
2023-04-04T18:27:32.234Z,64.00
2023-04-04T18:30:00.154Z,64.40
2023-04-04T18:32:29.126Z,65.00
2023-04-04T18:34:57.263Z,64.60
2023-04-04T18:37:25.337Z,65.30
2023-04-04T18:39:53.579Z,65.80
2023-04-04T18:42:21.715Z,65.80
2023-04-04T18:44:53.322Z,66.10
2023-04-04T18:47:22.338Z,67.10
2023-04-04T18:49:50.569Z,66.90
2023-04-04T18:52:18.630Z,68.20
2023-04-04T18:54:46.937Z,67.00
2023-04-04T18:57:15.336Z,67.70
2023-04-04T18:59:43.597Z,67.90
2023-04-04T19:02:13.040Z,69.40
2023-04-04T19:04:41.980Z,69.10
2023-04-04T19:07:12.637Z,69.70
2023-04-04T19:09:42.441Z,70.00
2023-04-04T19:12:10.748Z,70.50
2023-04-04T19:14:38.995Z,70.40
2023-04-04T19:17:07.234Z,70.90
2023-04-04T19:19:36.706Z,71.20
2023-04-04T19:22:05.149Z,73.80
2023-04-04T19:24:33.220Z,72.10
2023-04-04T19:27:02.535Z,71.60
2023-04-04T19:29:32.054Z,72.20
2023-04-04T19:32:03.605Z,72.60
2023-04-04T19:34:32.408Z,74.10
2023-04-04T19:37:01.873Z,73.20
2023-04-04T19:39:33.528Z,74.30
2023-04-04T19:42:02.589Z,73.80
2023-04-04T19:44:31.351Z,74.70
2023-04-04T19:47:01.022Z,74.30
2023-04-04T19:49:30.609Z,74.10
2023-04-04T19:51:59.039Z,74.00
2023-04-04T19:54:29.954Z,76.00
2023-04-04T19:57:03.465Z,75.30
2023-04-04T20:00:01.741Z,76.60
2023-04-04T20:02:57.009Z,77.40
2023-04-04T20:05:57.924Z,76.80
2023-04-04T20:08:33.974Z,77.10
2023-04-04T20:11:03.659Z,76.80
2023-04-04T20:13:32.758Z,78.10
2023-04-04T20:16:06.324Z,77.90
2023-04-04T20:18:35.633Z,77.60
2023-04-04T20:21:07.355Z,79.20
2023-04-04T20:23:45.905Z,79.60
2023-04-04T20:26:43.714Z,80.50
2023-04-04T20:29:13.913Z,81.40
2023-04-04T20:31:44.743Z,82.50
2023-04-04T20:34:32.919Z,83.80
2023-04-04T20:37:02.080Z,83.50
2023-04-04T20:39:40.512Z,83.90
2023-04-04T20:42:34.856Z,84.70
2023-04-04T20:45:14.412Z,88.10
2023-04-04T20:47:43.608Z,88.50
2023-04-04T20:50:46.241Z,90.60
2023-04-04T20:53:20.994Z,90.80
2023-04-04T20:55:53.334Z,91.50
2023-04-04T20:58:32.162Z,91.80
2023-04-04T21:01:01.701Z,92.70
2023-04-04T21:03:49.938Z,92.30
2023-04-04T21:06:18.124Z,92.30
2023-04-04T21:08:47.684Z,92.60
2023-04-04T21:11:19.269Z,92.80
2023-04-04T21:13:48.740Z,91.90
2023-04-04T21:16:17.726Z,92.30
2023-04-04T21:18:46.346Z,92.10
2023-04-04T21:21:18.542Z,92.60
2023-04-04T21:23:52.513Z,92.60
2023-04-04T21:26:29.507Z,91.70
2023-04-04T21:29:00.812Z,92.70
2023-04-04T21:31:35.576Z,92.10
2023-04-04T21:34:09.597Z,92.40
2023-04-04T21:36:37.740Z,91.70
2023-04-04T21:39:10.668Z,92.30
2023-04-04T21:41:38.790Z,92.20
2023-04-04T21:44:09.948Z,92.60
2023-04-04T21:46:39.438Z,92.40
2023-04-04T21:49:08.550Z,92.30
2023-04-04T21:51:37.298Z,92.60
2023-04-04T21:54:05.649Z,91.80
2023-04-04T21:56:33.853Z,92.30
2023-04-04T21:59:03.947Z,92.10
2023-04-04T22:01:33.524Z,92.10
2023-04-04T22:04:01.548Z,92.10
2023-04-04T22:06:30.809Z,92.20
2023-04-04T22:09:00.060Z,92.40
2023-04-04T22:11:29.040Z,92.50
2023-04-04T22:14:04.370Z,92.20
2023-04-04T22:16:39.086Z,92.40
2023-04-04T22:19:10.789Z,92.00
2023-04-04T22:21:39.183Z,91.80
2023-04-04T22:24:09.975Z,92.30
2023-04-04T22:26:41.628Z,92.30
2023-04-04T22:29:09.920Z,92.10
2023-04-04T22:31:39.355Z,92.40
2023-04-04T22:34:07.504Z,91.90
2023-04-04T22:36:38.552Z,91.50
2023-04-04T22:39:06.625Z,92.00
2023-04-04T22:41:34.695Z,92.00
2023-04-04T22:44:02.770Z,91.30
2023-04-04T22:46:32.183Z,92.50
2023-04-04T22:49:06.640Z,92.70
2023-04-04T22:51:43.117Z,93.20
2023-04-04T22:54:12.921Z,93.00
2023-04-04T22:56:41.708Z,93.60
2023-04-04T22:59:09.847Z,93.10
2023-04-04T23:01:38.231Z,93.30
2023-04-04T23:04:08.032Z,93.90
2023-04-04T23:06:38.343Z,95.00
2023-04-04T23:09:07.740Z,94.50
2023-04-04T23:11:36.441Z,95.50
2023-04-04T23:14:08.619Z,96.30
2023-04-04T23:16:37.206Z,97.30
2023-04-04T23:19:07.512Z,96.20
2023-04-04T23:21:36.593Z,96.70
2023-04-04T23:24:04.978Z,96.90
2023-04-04T23:26:33.517Z,97.70
2023-04-04T23:29:02.089Z,98.10
2023-04-04T23:31:30.652Z,98.40
2023-04-04T23:33:59.785Z,98.80
2023-04-04T23:36:29.386Z,98.40
2023-04-04T23:38:57.494Z,99.10
2023-04-04T23:41:26.279Z,99.60
2023-04-04T23:43:54.562Z,99.10
2023-04-04T23:46:23.808Z,98.90
2023-04-04T23:48:51.944Z,99.70
2023-04-04T23:51:20.016Z,99.50
2023-04-04T23:53:49.434Z,99.90
2023-04-04T23:56:17.787Z,99.90
2023-04-04T23:58:46.121Z,99.90
